sensor_id;sensor_type;location;lat;lon;timestamp;pressure;altitude;pressure_sealevel;temperature;humidity
34482;BME280;20720;48.886;9.388;2022-11-20T00:01:31;97857.63;;;9.90;100.00
34482;BME280;20720;48.886;9.388;2022-11-20T00:03:58;97857.00;;;9.94;100.00
34482;BME280;20720;48.886;9.388;2022-11-20T00:06:23;97857.84;;;9.88;100.00
34482;BME280;20720;48.886;9.388;2022-11-20T00:08:49;97867.19;;;9.58;100.00
34482;BME280;20720;48.886;9.388;2022-11-20T00:11:17;97863.94;;;9.69;100.00
34482;BME280;20720;48.886;9.388;2022-11-20T00:13:44;97857.22;;;9.93;100.00
34482;BME280;20720;48.886;9.388;2022-11-20T00:16:10;97858.66;;;9.89;100.00
34482;BME280;20720;48.886;9.388;2022-11-20T00:18:36;97864.69;;;9.96;100.00
34482;BME280;20720;48.886;9.388;2022-11-20T00:21:04;97860.03;;;10.04;100.00
34482;BME280;20720;48.886;9.388;2022-11-20T00:23:30;97862.69;;;9.91;100.00
34482;BME280;20720;48.886;9.388;2022-11-20T00:25:55;97860.66;;;9.93;100.00
34482;BME280;20720;48.886;9.388;2022-11-20T00:28:21;97858.28;;;9.72;100.00
34482;BME280;20720;48.886;9.388;2022-11-20T00:30:46;97858.66;;;9.95;100.00
34482;BME280;20720;48.886;9.388;2022-11-20T00:33:11;97859.00;;;10.05;100.00
34482;BME280;20720;48.886;9.388;2022-11-20T00:35:36;97858.47;;;9.77;100.00
34482;BME280;20720;48.886;9.388;2022-11-20T00:38:02;97863.94;;;9.56;100.00
34482;BME280;20720;48.886;9.388;2022-11-20T00:40:27;97853.91;;;9.33;100.00
34482;BME280;20720;48.886;9.388;2022-11-20T00:42:52;97849.66;;;9.39;100.00
34482;BME280;20720;48.886;9.388;2022-11-20T00:45:18;97854.91;;;9.45;100.00
34482;BME280;20720;48.886;9.388;2022-11-20T00:47:43;97850.03;;;9.62;100.00
34482;BME280;20720;48.886;9.388;2022-11-20T00:50:08;97855.09;;;9.57;100.00
34482;BME280;20720;48.886;9.388;2022-11-20T00:52:33;97859.72;;;9.55;100.00
34482;BME280;20720;48.886;9.388;2022-11-20T00:54:59;97857.09;;;9.68;100.00
34482;BME280;20720;48.886;9.388;2022-11-20T00:57:24;97861.94;;;9.58;100.00
34482;BME280;20720;48.886;9.388;2022-11-20T00:59:49;97863.94;;;9.76;100.00
34482;BME280;20720;48.886;9.388;2022-11-20T01:02:14;97866.38;;;9.51;100.00
34482;BME280;20720;48.886;9.388;2022-11-20T01:04:41;97865.19;;;9.54;100.00
34482;BME280;20720;48.886;9.388;2022-11-20T01:07:07;97867.59;;;9.03;100.00
34482;BME280;20720;48.886;9.388;2022-11-20T01:09:32;97843.88;;;8.24;100.00
34482;BME280;20720;48.886;9.388;2022-11-20T01:11:57;97847.38;;;8.51;100.00
34482;BME280;20720;48.886;9.388;2022-11-20T01:14:24;97847.53;;;8.36;100.00
34482;BME280;20720;48.886;9.388;2022-11-20T01:16:50;97851.06;;;8.96;100.00
34482;BME280;20720;48.886;9.388;2022-11-20T01:19:21;97859.50;;;9.70;100.00
34482;BME280;20720;48.886;9.388;2022-11-20T01:21:52;97865.91;;;9.93;100.00
34482;BME280;20720;48.886;9.388;2022-11-20T01:24:19;97864.69;;;9.96;100.00
34482;BME280;20720;48.886;9.388;2022-11-20T01:26:47;97870.75;;;9.96;100.00
34482;BME280;20720;48.886;9.388;2022-11-20T01:29:15;97875.00;;;9.97;100.00
34482;BME280;20720;48.886;9.388;2022-11-20T01:31:41;97884.09;;;9.82;100.00
34482;BME280;20720;48.886;9.388;2022-11-20T01:34:10;97880.50;;;9.04;100.00
34482;BME280;20720;48.886;9.388;2022-11-20T01:36:37;97879.28;;;9.52;100.00
34482;BME280;20720;48.886;9.388;2022-11-20T01:39:10;97882.50;;;9.74;100.00
34482;BME280;20720;48.886;9.388;2022-11-20T01:41:36;97874.81;;;9.86;100.00
34482;BME280;20720;48.886;9.388;2022-11-20T01:44:39;97876.06;;;9.50;100.00
34482;BME280;20720;48.886;9.388;2022-11-20T01:47:08;97868.97;;;9.77;100.00
34482;BME280;20720;48.886;9.388;2022-11-20T01:49:47;97872.19;;;9.79;100.00
34482;BME280;20720;48.886;9.388;2022-11-20T01:52:17;97871.25;;;9.47;100.00
34482;BME280;20720;48.886;9.388;2022-11-20T01:54:59;97857.88;;;8.71;100.00
34482;BME280;20720;48.886;9.388;2022-11-20T01:57:28;97848.22;;;8.84;100.00
34482;BME280;20720;48.886;9.388;2022-11-20T02:00:04;97854.28;;;9.57;100.00
34482;BME280;20720;48.886;9.388;2022-11-20T02:02:30;97859.09;;;9.66;100.00
34482;BME280;20720;48.886;9.388;2022-11-20T02:05:01;97861.09;;;9.77;100.00
34482;BME280;20720;48.886;9.388;2022-11-20T02:07:29;97862.31;;;9.75;100.00
34482;BME280;20720;48.886;9.388;2022-11-20T02:09:55;97855.50;;;9.41;100.00
34482;BME280;20720;48.886;9.388;2022-11-20T02:12:20;97860.31;;;9.64;100.00
34482;BME280;20720;48.886;9.388;2022-11-20T02:15:05;97855.47;;;9.67;100.00
34482;BME280;20720;48.886;9.388;2022-11-20T02:17:30;97862.94;;;9.64;100.00
34482;BME280;20720;48.886;9.388;2022-11-20T02:19:55;97867.22;;;9.52;100.00
34482;BME280;20720;48.886;9.388;2022-11-20T02:22:43;97860.97;;;9.33;100.00
34482;BME280;20720;48.886;9.388;2022-11-20T02:25:12;97857.13;;;9.42;100.00
34482;BME280;20720;48.886;9.388;2022-11-20T02:27:38;97860.69;;;9.67;100.00
34482;BME280;20720;48.886;9.388;2022-11-20T02:30:05;97864.38;;;9.33;100.00
34482;BME280;20720;48.886;9.388;2022-11-20T02:32:36;97863.75;;;9.51;100.00
34482;BME280;20720;48.886;9.388;2022-11-20T02:37:56;97852.50;;;9.44;100.00
34482;BME280;20720;48.886;9.388;2022-11-20T02:40:22;97854.25;;;9.76;100.00
34482;BME280;20720;48.886;9.388;2022-11-20T02:42:52;97862.38;;;9.16;100.00
34482;BME280;20720;48.886;9.388;2022-11-20T02:45:17;97861.03;;;10.03;100.00
34482;BME280;20720;48.886;9.388;2022-11-20T02:47:43;97868.72;;;9.98;100.00
34482;BME280;20720;48.886;9.388;2022-11-20T02:50:08;97865.19;;;9.47;100.00
34482;BME280;20720;48.886;9.388;2022-11-20T02:52:33;97855.03;;;9.83;100.00
34482;BME280;20720;48.886;9.388;2022-11-20T02:54:58;97866.97;;;9.73;100.00
34482;BME280;20720;48.886;9.388;2022-11-20T02:57:24;97861.53;;;9.35;100.00
34482;BME280;20720;48.886;9.388;2022-11-20T02:59:49;97860.75;;;9.41;100.00
34482;BME280;20720;48.886;9.388;2022-11-20T03:02:14;97869.22;;;9.43;100.00
34482;BME280;20720;48.886;9.388;2022-11-20T03:04:39;97868.81;;;9.20;100.00
34482;BME280;20720;48.886;9.388;2022-11-20T03:07:05;97869.00;;;9.51;100.00
34482;BME280;20720;48.886;9.388;2022-11-20T03:09:30;97867.59;;;9.09;100.00
34482;BME280;20720;48.886;9.388;2022-11-20T03:11:56;97862.97;;;9.18;100.00
34482;BME280;20720;48.886;9.388;2022-11-20T03:14:21;97867.88;;;10.17;100.00
34482;BME280;20720;48.886;9.388;2022-11-20T03:16:46;97860.41;;;10.01;100.00
34482;BME280;20720;48.886;9.388;2022-11-20T03:19:12;97866.00;;;9.21;100.00
34482;BME280;20720;48.886;9.388;2022-11-20T03:21:37;97859.22;;;10.10;100.00
34482;BME280;20720;48.886;9.388;2022-11-20T03:24:03;97860.59;;;10.19;100.00
34482;BME280;20720;48.886;9.388;2022-11-20T03:26:29;97863.94;;;9.56;100.00
34482;BME280;20720;48.886;9.388;2022-11-20T03:28:56;97855.97;;;10.21;100.00
34482;BME280;20720;48.886;9.388;2022-11-20T03:31:27;97855.31;;;10.26;100.00
34482;BME280;20720;48.886;9.388;2022-11-20T03:33:53;97858.91;;;10.31;100.00
34482;BME280;20720;48.886;9.388;2022-11-20T03:36:19;97858.38;;;10.23;100.00
34482;BME280;20720;48.886;9.388;2022-11-20T03:38:45;97847.59;;;9.80;100.00
34482;BME280;20720;48.886;9.388;2022-11-20T03:41:17;97856.56;;;10.17;100.00
34482;BME280;20720;48.886;9.388;2022-11-20T03:43:53;97855.91;;;9.51;100.00
34482;BME280;20720;48.886;9.388;2022-11-20T03:46:19;97866.38;;;9.51;100.00
34482;BME280;20720;48.886;9.388;2022-11-20T03:48:45;97856.72;;;8.93;100.00
34482;BME280;20720;48.886;9.388;2022-11-20T03:51:19;97854.09;;;9.25;100.00
34482;BME280;20720;48.886;9.388;2022-11-20T03:53:46;97844.97;;;9.74;100.00
34482;BME280;20720;48.886;9.388;2022-11-20T03:56:13;97840.94;;;9.78;100.00
34482;BME280;20720;48.886;9.388;2022-11-20T03:58:40;97854.66;;;9.60;100.00
34482;BME280;20720;48.886;9.388;2022-11-20T04:01:20;97852.69;;;9.36;100.00
34482;BME280;20720;48.886;9.388;2022-11-20T04:03:45;97853.09;;;9.46;100.00
34482;BME280;20720;48.886;9.388;2022-11-20T04:06:16;97859.13;;;9.53;100.00
34482;BME280;20720;48.886;9.388;2022-11-20T04:08:42;97862.56;;;9.01;100.00
34482;BME280;20720;48.886;9.388;2022-11-20T04:13:37;97845.41;;;9.31;100.00
34482;BME280;20720;48.886;9.388;2022-11-20T04:16:03;97857.53;;;9.19;100.00
34482;BME280;20720;48.886;9.388;2022-11-20T04:18:28;97849.88;;;9.31;100.00
34482;BME280;20720;48.886;9.388;2022-11-20T04:20:53;97857.13;;;9.22;100.00
34482;BME280;20720;48.886;9.388;2022-11-20T04:23:18;97854.31;;;9.30;100.00
34482;BME280;20720;48.886;9.388;2022-11-20T04:25:44;97847.06;;;9.06;100.00
34482;BME280;20720;48.886;9.388;2022-11-20T04:28:09;97849.44;;;9.47;100.00
34482;BME280;20720;48.886;9.388;2022-11-20T04:30:35;97848.06;;;9.05;100.00
34482;BME280;20720;48.886;9.388;2022-11-20T04:33:00;97841.78;;;8.93;100.00
34482;BME280;20720;48.886;9.388;2022-11-20T04:35:25;97851.91;;;9.29;100.00
34482;BME280;20720;48.886;9.388;2022-11-20T04:37:51;97851.06;;;8.96;100.00
34482;BME280;20720;48.886;9.388;2022-11-20T04:40:17;97840.59;;;8.96;100.00
34482;BME280;20720;48.886;9.388;2022-11-20T04:42:43;97845.81;;;9.09;100.00
34482;BME280;20720;48.886;9.388;2022-11-20T04:45:08;97851.47;;;9.25;100.00
34482;BME280;20720;48.886;9.388;2022-11-20T04:47:34;97842.59;;;9.20;100.00
34482;BME280;20720;48.886;9.388;2022-11-20T04:50:00;97848.66;;;9.27;100.00
34482;BME280;20720;48.886;9.388;2022-11-20T04:52:25;97853.91;;;9.27;100.00
34482;BME280;20720;48.886;9.388;2022-11-20T04:54:50;97849.47;;;9.08;100.00
34482;BME280;20720;48.886;9.388;2022-11-20T04:57:18;97851.47;;;9.32;100.00
34482;BME280;20720;48.886;9.388;2022-11-20T04:59:43;97845.41;;;9.51;100.00
34482;BME280;20720;48.886;9.388;2022-11-20T05:02:08;97853.09;;;9.20;100.00
34482;BME280;20720;48.886;9.388;2022-11-20T05:04:34;97851.69;;;9.24;100.00
34482;BME280;20720;48.886;9.388;2022-11-20T05:06:59;97846.47;;;10.07;100.00
34482;BME280;20720;48.886;9.388;2022-11-20T05:09:24;97849.66;;;9.13;100.00
34482;BME280;20720;48.886;9.388;2022-11-20T05:11:49;97840.56;;;8.70;100.00
34482;BME280;20720;48.886;9.388;2022-11-20T05:14:15;97838.97;;;8.88;100.00
34482;BME280;20720;48.886;9.388;2022-11-20T05:16:40;97842.09;;;9.95;100.00
34482;BME280;20720;48.886;9.388;2022-11-20T05:19:05;97838.59;;;10.07;100.00
34482;BME280;20720;48.886;9.388;2022-11-20T05:21:31;97843.97;;;9.68;100.00
34482;BME280;20720;48.886;9.388;2022-11-20T05:23:57;97841.31;;;9.75;100.00
34482;BME280;20720;48.886;9.388;2022-11-20T05:26:22;97853.88;;;9.53;100.00
34482;BME280;20720;48.886;9.388;2022-11-20T05:28:48;97844.78;;;9.69;100.00
34482;BME280;20720;48.886;9.388;2022-11-20T05:31:16;97843.25;;;10.05;100.00
34482;BME280;20720;48.886;9.388;2022-11-20T05:33:44;97849.25;;;9.48;100.00
34482;BME280;20720;48.886;9.388;2022-11-20T05:36:11;97847.50;;;10.06;100.00
34482;BME280;20720;48.886;9.388;2022-11-20T05:38:37;97841.75;;;9.78;100.00
34482;BME280;20720;48.886;9.388;2022-11-20T05:41:11;97852.28;;;9.13;100.00
34482;BME280;20720;48.886;9.388;2022-11-20T05:43:38;97847.06;;;9.19;100.00
34482;BME280;20720;48.886;9.388;2022-11-20T05:46:05;97853.91;;;9.27;100.00
34482;BME280;20720;48.886;9.388;2022-11-20T05:48:31;97853.78;;;10.12;100.00
34482;BME280;20720;48.886;9.388;2022-11-20T05:51:01;97841.38;;;9.35;100.00
34482;BME280;20720;48.886;9.388;2022-11-20T05:53:26;97841.22;;;10.07;100.00
34482;BME280;20720;48.886;9.388;2022-11-20T05:56:04;97838.69;;;9.81;100.00
34482;BME280;20720;48.886;9.388;2022-11-20T05:58:31;97848.06;;;9.25;100.00
34482;BME280;20720;48.886;9.388;2022-11-20T06:01:08;97842.88;;;10.02;100.00
34482;BME280;20720;48.886;9.388;2022-11-20T06:03:34;97836.97;;;9.36;100.00
34482;BME280;20720;48.886;9.388;2022-11-20T06:06:00;97838.50;;;9.76;100.00
34482;BME280;20720;48.886;9.388;2022-11-20T06:08:26;97835.72;;;9.58;100.00
34482;BME280;20720;48.886;9.388;2022-11-20T06:10:51;97843.81;;;9.11;100.00
34482;BME280;20720;48.886;9.388;2022-11-20T06:13:17;97845.38;;;9.64;100.00
34482;BME280;20720;48.886;9.388;2022-11-20T06:15:48;97823.19;;;9.67;100.00
34482;BME280;20720;48.886;9.388;2022-11-20T06:18:13;97836.75;;;9.44;100.00
34482;BME280;20720;48.886;9.388;2022-11-20T06:20:38;97830.88;;;9.48;100.00
34482;BME280;20720;48.886;9.388;2022-11-20T06:23:04;97836.53;;;9.52;100.00
34482;BME280;20720;48.886;9.388;2022-11-20T06:25:29;97832.78;;;10.12;100.00
34482;BME280;20720;48.886;9.388;2022-11-20T06:27:54;97827.63;;;9.66;100.00
34482;BME280;20720;48.886;9.388;2022-11-20T06:30:19;97831.66;;;9.62;100.00
34482;BME280;20720;48.886;9.388;2022-11-20T06:32:45;97829.19;;;9.93;100.00
34482;BME280;20720;48.886;9.388;2022-11-20T06:35:10;97834.91;;;9.64;100.00
34482;BME280;20720;48.886;9.388;2022-11-20T06:37:36;97821.19;;;9.62;100.00
34482;BME280;20720;48.886;9.388;2022-11-20T06:40:01;97829.19;;;9.87;100.00
34482;BME280;20720;48.886;9.388;2022-11-20T06:42:26;97830.66;;;9.76;100.00
34482;BME280;20720;48.886;9.388;2022-11-20T06:44:52;97827.84;;;9.65;100.00
34482;BME280;20720;48.886;9.388;2022-11-20T06:47:17;97831.50;;;9.57;100.00
34482;BME280;20720;48.886;9.388;2022-11-20T06:49:42;97834.09;;;9.70;100.00
34482;BME280;20720;48.886;9.388;2022-11-20T06:52:07;97842.81;;;9.18;100.00
34482;BME280;20720;48.886;9.388;2022-11-20T06:54:33;97841.69;;;9.91;100.00
34482;BME280;20720;48.886;9.388;2022-11-20T06:56:58;97836.06;;;9.81;100.00
34482;BME280;20720;48.886;9.388;2022-11-20T06:59:23;97840.19;;;9.38;100.00
34482;BME280;20720;48.886;9.388;2022-11-20T07:01:48;97845.41;;;9.51;100.00
34482;BME280;20720;48.886;9.388;2022-11-20T07:04:14;97839.78;;;9.34;100.00
34482;BME280;20720;48.886;9.388;2022-11-20T07:06:39;97845.63;;;9.30;100.00
34482;BME280;20720;48.886;9.388;2022-11-20T07:09:04;97840.59;;;9.22;100.00
34482;BME280;20720;48.886;9.388;2022-11-20T07:11:29;97840.81;;;9.27;100.00
34482;BME280;20720;48.886;9.388;2022-11-20T07:13:56;97839.94;;;9.72;100.00
34482;BME280;20720;48.886;9.388;2022-11-20T07:16:21;97840.09;;;9.84;100.00
34482;BME280;20720;48.886;9.388;2022-11-20T07:18:47;97845.44;;;9.18;100.00
34482;BME280;20720;48.886;9.388;2022-11-20T07:21:12;97849.88;;;9.44;100.00
34482;BME280;20720;48.886;9.388;2022-11-20T07:23:37;97851.69;;;9.04;100.00
34482;BME280;20720;48.886;9.388;2022-11-20T07:26:04;97851.38;;;9.84;100.00
34482;BME280;20720;48.886;9.388;2022-11-20T07:28:29;97857.09;;;9.62;100.00
34482;BME280;20720;48.886;9.388;2022-11-20T07:30:55;97855.00;;;9.90;100.00
34482;BME280;20720;48.886;9.388;2022-11-20T07:33:20;97857.69;;;10.40;100.00
34482;BME280;20720;48.886;9.388;2022-11-20T07:35:45;97859.84;;;9.86;100.00
34482;BME280;20720;48.886;9.388;2022-11-20T07:38:11;97868.78;;;9.66;100.00
34482;BME280;20720;48.886;9.388;2022-11-20T07:40:36;97862.63;;;10.17;100.00
34482;BME280;20720;48.886;9.388;2022-11-20T07:43:01;97865.44;;;10.22;100.00
34482;BME280;20720;48.886;9.388;2022-11-20T07:45:27;97867.91;;;10.62;100.00
34482;BME280;20720;48.886;9.388;2022-11-20T07:47:52;97872.94;;;10.57;100.00
34482;BME280;20720;48.886;9.388;2022-11-20T07:50:19;97879.19;;;10.18;100.00
34482;BME280;20720;48.886;9.388;2022-11-20T07:52:45;97882.91;;;9.65;100.00
34482;BME280;20720;48.886;9.388;2022-11-20T07:55:11;97870.41;;;9.47;100.00
34482;BME280;20720;48.886;9.388;2022-11-20T07:57:36;97869.00;;;9.64;100.00
34482;BME280;20720;48.886;9.388;2022-11-20T08:00:03;97874.03;;;9.66;100.00
34482;BME280;20720;48.886;9.388;2022-11-20T08:02:29;97864.28;;;9.99;100.00
34482;BME280;20720;48.886;9.388;2022-11-20T08:04:54;97871.63;;;9.71;100.00
34482;BME280;20720;48.886;9.388;2022-11-20T08:07:20;97878.28;;;9.47;100.00
34482;BME280;20720;48.886;9.388;2022-11-20T08:09:45;97872.09;;;10.18;100.00
34482;BME280;20720;48.886;9.388;2022-11-20T08:12:20;97869.72;;;10.04;100.00
34482;BME280;20720;48.886;9.388;2022-11-20T08:15:05;97875.97;;;9.96;100.00
34482;BME280;20720;48.886;9.388;2022-11-20T08:17:31;97877.34;;;10.18;100.00
34482;BME280;20720;48.886;9.388;2022-11-20T08:19:56;97875.00;;;9.97;100.00
34482;BME280;20720;48.886;9.388;2022-11-20T08:22:22;97877.59;;;10.10;100.00
34482;BME280;20720;48.886;9.388;2022-11-20T08:24:47;97875.31;;;10.20;100.00
34482;BME280;20720;48.886;9.388;2022-11-20T08:27:13;97873.84;;;10.37;100.00
34482;BME280;20720;48.886;9.388;2022-11-20T08:29:38;97883.16;;;10.33;100.00
34482;BME280;20720;48.886;9.388;2022-11-20T08:32:04;97879.22;;;10.56;100.00
34482;BME280;20720;48.886;9.388;2022-11-20T08:34:29;97880.78;;;10.19;100.00
34482;BME280;20720;48.886;9.388;2022-11-20T08:36:54;97880.13;;;9.27;100.00
34482;BME280;20720;48.886;9.388;2022-11-20T08:39:19;97874.34;;;10.08;100.00
34482;BME280;20720;48.886;9.388;2022-11-20T08:41:45;97883.38;;;10.70;100.00
34482;BME280;20720;48.886;9.388;2022-11-20T08:44:10;97884.03;;;10.14;100.00
34482;BME280;20720;48.886;9.388;2022-11-20T08:46:38;97881.88;;;10.56;100.00
34482;BME280;20720;48.886;9.388;2022-11-20T08:49:05;97882.59;;;10.18;100.00
34482;BME280;20720;48.886;9.388;2022-11-20T08:51:31;97896.31;;;10.27;100.00
34482;BME280;20720;48.886;9.388;2022-11-20T08:53:57;97887.94;;;10.50;100.00
34482;BME280;20720;48.886;9.388;2022-11-20T08:56:22;97896.47;;;10.38;100.00
34482;BME280;20720;48.886;9.388;2022-11-20T08:58:49;97890.00;;;10.41;100.00
34482;BME280;20720;48.886;9.388;2022-11-20T09:01:15;97887.34;;;9.84;100.00
34482;BME280;20720;48.886;9.388;2022-11-20T09:03:40;97885.75;;;9.63;100.00
34482;BME280;20720;48.886;9.388;2022-11-20T09:06:07;97890.19;;;9.43;100.00
34482;BME280;20720;48.886;9.388;2022-11-20T09:08:33;97875.97;;;10.03;100.00
34482;BME280;20720;48.886;9.388;2022-11-20T09:10:59;97874.75;;;10.05;100.00
34482;BME280;20720;48.886;9.388;2022-11-20T09:13:26;97889.88;;;10.03;100.00
34482;BME280;20720;48.886;9.388;2022-11-20T09:15:56;97890.97;;;10.53;100.00
34482;BME280;20720;48.886;9.388;2022-11-20T09:18:24;97894.94;;;10.18;100.00
34482;BME280;20720;48.886;9.388;2022-11-20T09:20:50;97894.19;;;10.49;100.00
34482;BME280;20720;48.886;9.388;2022-11-20T09:23:15;97902.06;;;11.24;100.00
34482;BME280;20720;48.886;9.388;2022-11-20T09:25:41;97903.13;;;10.79;100.00
34482;BME280;20720;48.886;9.388;2022-11-20T09:28:07;97903.19;;;10.72;100.00
34482;BME280;20720;48.886;9.388;2022-11-20T09:30:32;97897.75;;;11.05;100.00
34482;BME280;20720;48.886;9.388;2022-11-20T09:32:57;97901.91;;;10.88;100.00
34482;BME280;20720;48.886;9.388;2022-11-20T09:35:23;97897.94;;;10.72;100.00
34482;BME280;20720;48.886;9.388;2022-11-20T09:37:48;97891.53;;;11.24;100.00
34482;BME280;20720;48.886;9.388;2022-11-20T09:40:20;97903.09;;;10.92;100.00
34482;BME280;20720;48.886;9.388;2022-11-20T09:46:07;97912.19;;;10.52;100.00
34482;BME280;20720;48.886;9.388;2022-11-20T09:48:48;97904.34;;;10.83;100.00
34482;BME280;20720;48.886;9.388;2022-11-20T09:51:34;97910.50;;;10.64;100.00
34482;BME280;20720;48.886;9.388;2022-11-20T09:56:40;97915.13;;;10.11;100.00
34482;BME280;20720;48.886;9.388;2022-11-20T09:59:34;97914.06;;;10.31;100.00
34482;BME280;20720;48.886;9.388;2022-11-20T10:01:59;97921.97;;;10.05;100.00
34482;BME280;20720;48.886;9.388;2022-11-20T10:04:25;97921.06;;;10.51;100.00
34482;BME280;20720;48.886;9.388;2022-11-20T10:10:34;97913.34;;;10.62;100.00
34482;BME280;20720;48.886;9.388;2022-11-20T10:13:29;97908.19;;;10.43;100.00
34482;BME280;20720;48.886;9.388;2022-11-20T10:16:06;97921.50;;;10.92;100.00
34482;BME280;20720;48.886;9.388;2022-11-20T10:18:59;97909.69;;;9.99;100.00
34482;BME280;20720;48.886;9.388;2022-11-20T10:21:45;97916.91;;;10.30;100.00
34482;BME280;20720;48.886;9.388;2022-11-20T10:29:42;97918.19;;;10.65;100.00
34482;BME280;20720;48.886;9.388;2022-11-20T10:32:16;97915.91;;;10.31;100.00
34482;BME280;20720;48.886;9.388;2022-11-20T10:34:51;97920.34;;;10.30;100.00
34482;BME280;20720;48.886;9.388;2022-11-20T10:37:22;97919.19;;;10.00;100.00
34482;BME280;20720;48.886;9.388;2022-11-20T10:42:43;97918.75;;;10.16;100.00
34482;BME280;20720;48.886;9.388;2022-11-20T10:45:19;97915.56;;;9.95;100.00
34482;BME280;20720;48.886;9.388;2022-11-20T10:47:46;97907.25;;;10.17;100.00
34482;BME280;20720;48.886;9.388;2022-11-20T10:50:18;97902.19;;;10.22;100.00
34482;BME280;20720;48.886;9.388;2022-11-20T10:55:46;97904.84;;;10.09;100.00
34482;BME280;20720;48.886;9.388;2022-11-20T10:58:36;97903.94;;;10.86;100.00
34482;BME280;20720;48.886;9.388;2022-11-20T11:01:24;97909.25;;;10.73;100.00
34482;BME280;20720;48.886;9.388;2022-11-20T11:03:52;97907.06;;;10.12;100.00
34482;BME280;20720;48.886;9.388;2022-11-20T11:06:40;97904.97;;;10.40;100.00
34482;BME280;20720;48.886;9.388;2022-11-20T11:09:16;97903.44;;;10.00;100.00
34482;BME280;20720;48.886;9.388;2022-11-20T11:11:44;97907.84;;;10.19;100.00
34482;BME280;20720;48.886;9.388;2022-11-20T11:14:12;97903.91;;;10.48;100.00
34482;BME280;20720;48.886;9.388;2022-11-20T11:16:50;97897.16;;;10.65;100.00
34482;BME280;20720;48.886;9.388;2022-11-20T11:19:16;97903.13;;;10.41;100.00
34482;BME280;20720;48.886;9.388;2022-11-20T11:21:49;97889.72;;;9.98;100.00
34482;BME280;20720;48.886;9.388;2022-11-20T11:24:23;97883.56;;;10.37;100.00
34482;BME280;20720;48.886;9.388;2022-11-20T11:26:56;97863.13;;;9.75;100.00
34482;BME280;20720;48.886;9.388;2022-11-20T11:29:22;97868.78;;;10.43;100.00
34482;BME280;20720;48.886;9.388;2022-11-20T11:31:47;97879.53;;;10.34;100.00
34482;BME280;20720;48.886;9.388;2022-11-20T11:34:16;97875.47;;;10.38;100.00
34482;BME280;20720;48.886;9.388;2022-11-20T11:36:51;97864.84;;;10.65;100.00
34482;BME280;20720;48.886;9.388;2022-11-20T11:39:20;97862.06;;;11.15;100.00
34482;BME280;20720;48.886;9.388;2022-11-20T11:41:46;97870.44;;;11.30;100.00
34482;BME280;20720;48.886;9.388;2022-11-20T11:44:18;97876.75;;;10.98;100.00
34482;BME280;20720;48.886;9.388;2022-11-20T11:47:05;97868.78;;;11.36;100.00
34482;BME280;20720;48.886;9.388;2022-11-20T11:49:33;97860.56;;;11.51;100.00
34482;BME280;20720;48.886;9.388;2022-11-20T11:52:08;97862.91;;;11.59;100.00
34482;BME280;20720;48.886;9.388;2022-11-20T11:54:52;97864.69;;;13.14;100.00
34482;BME280;20720;48.886;9.388;2022-11-20T12:00:19;97866.69;;;13.88;100.00
34482;BME280;20720;48.886;9.388;2022-11-20T12:05:24;97860.75;;;14.72;100.00
34482;BME280;20720;48.886;9.388;2022-11-20T12:07:54;97866.69;;;13.42;100.00
34482;BME280;20720;48.886;9.388;2022-11-20T12:16:00;97865.03;;;12.77;100.00
34482;BME280;20720;48.886;9.388;2022-11-20T12:18:27;97859.16;;;12.75;100.00
34482;BME280;20720;48.886;9.388;2022-11-20T12:29:31;97853.03;;;13.68;100.00
34482;BME280;20720;48.886;9.388;2022-11-20T12:32:25;97851.28;;;13.97;98.44
34482;BME280;20720;48.886;9.388;2022-11-20T12:40:30;97852.69;;;18.23;75.56
34482;BME280;20720;48.886;9.388;2022-11-20T12:43:22;97863.78;;;14.13;91.06
34482;BME280;20720;48.886;9.388;2022-11-20T12:46:18;97866.91;;;13.52;90.63
34482;BME280;20720;48.886;9.388;2022-11-20T12:51:39;97866.81;;;13.36;92.70
34482;BME280;20720;48.886;9.388;2022-11-20T12:54:34;97864.50;;;15.49;78.76
34482;BME280;20720;48.886;9.388;2022-11-20T12:57:15;97867.22;;;17.32;73.26
34482;BME280;20720;48.886;9.388;2022-11-20T13:03:13;97862.69;;;16.10;75.21
34482;BME280;20720;48.886;9.388;2022-11-20T13:05:53;97856.03;;;15.85;78.00
34482;BME280;20720;48.886;9.388;2022-11-20T13:08:25;97862.88;;;17.48;69.28
34482;BME280;20720;48.886;9.388;2022-11-20T13:11:07;97853.41;;;16.29;68.50
34482;BME280;20720;48.886;9.388;2022-11-20T13:16:26;97862.47;;;16.33;67.15
34482;BME280;20720;48.886;9.388;2022-11-20T13:18:55;97861.69;;;17.07;64.48
34482;BME280;20720;48.886;9.388;2022-11-20T13:21:23;97870.69;;;15.93;68.53
34482;BME280;20720;48.886;9.388;2022-11-20T13:26:31;97863.81;;;13.32;82.17
34482;BME280;20720;48.886;9.388;2022-11-20T13:29:10;97865.97;;;13.23;82.41
34482;BME280;20720;48.886;9.388;2022-11-20T13:31:39;97864.22;;;11.92;86.73
34482;BME280;20720;48.886;9.388;2022-11-20T13:34:12;97869.44;;;12.65;87.85
34482;BME280;20720;48.886;9.388;2022-11-20T13:36:51;97855.47;;;12.16;85.66
34482;BME280;20720;48.886;9.388;2022-11-20T13:39:36;97850.16;;;12.35;88.79
34482;BME280;20720;48.886;9.388;2022-11-20T13:42:27;97846.28;;;12.19;89.99
34482;BME280;20720;48.886;9.388;2022-11-20T13:45:01;97852.22;;;12.92;87.25
34482;BME280;20720;48.886;9.388;2022-11-20T13:47:27;97845.47;;;12.96;85.87
34482;BME280;20720;48.886;9.388;2022-11-20T13:49:55;97838.16;;;12.39;90.24
34482;BME280;20720;48.886;9.388;2022-11-20T13:52:48;97832.44;;;15.67;75.65
34482;BME280;20720;48.886;9.388;2022-11-20T13:55:49;97829.25;;;14.71;76.70
34482;BME280;20720;48.886;9.388;2022-11-20T14:01:11;97828.53;;;12.62;85.03
34482;BME280;20720;48.886;9.388;2022-11-20T14:03:40;97828.50;;;12.32;88.46
34482;BME280;20720;48.886;9.388;2022-11-20T14:06:13;97827.44;;;11.86;89.73
34482;BME280;20720;48.886;9.388;2022-11-20T14:08:50;97832.19;;;11.77;91.14
34482;BME280;20720;48.886;9.388;2022-11-20T14:11:19;97832.53;;;12.17;89.83
34482;BME280;20720;48.886;9.388;2022-11-20T14:14:13;97836.06;;;12.59;89.15